sensor_id;sensor_type;location;lat;lon;timestamp;P1;durP1;ratioP1;P2;durP2;ratioP2
6358;SDS011;3212;51.460;11.868;2024-01-10T00:02:53;25.00;;;11.10;;
6358;SDS011;3212;51.460;11.868;2024-01-10T00:06:16;24.93;;;10.40;;
6358;SDS011;3212;51.460;11.868;2024-01-10T00:09:39;26.90;;;11.87;;
6358;SDS011;3212;51.460;11.868;2024-01-10T00:13:01;26.47;;;11.17;;
6358;SDS011;3212;51.460;11.868;2024-01-10T00:16:25;26.70;;;12.40;;
6358;SDS011;3212;51.460;11.868;2024-01-10T00:19:47;27.23;;;11.03;;
6358;SDS011;3212;51.460;11.868;2024-01-10T00:23:10;29.30;;;11.20;;
6358;SDS011;3212;51.460;11.868;2024-01-10T00:26:33;27.23;;;11.77;;
6358;SDS011;3212;51.460;11.868;2024-01-10T00:29:55;29.60;;;11.90;;
6358;SDS011;3212;51.460;11.868;2024-01-10T00:33:18;32.00;;;11.13;;
6358;SDS011;3212;51.460;11.868;2024-01-10T00:36:40;21.77;;;10.60;;
6358;SDS011;3212;51.460;11.868;2024-01-10T00:40:04;29.00;;;10.83;;
6358;SDS011;3212;51.460;11.868;2024-01-10T00:43:27;24.17;;;10.53;;
6358;SDS011;3212;51.460;11.868;2024-01-10T00:46:49;32.10;;;11.70;;
6358;SDS011;3212;51.460;11.868;2024-01-10T00:50:12;24.27;;;10.97;;
6358;SDS011;3212;51.460;11.868;2024-01-10T00:53:35;27.20;;;11.40;;
6358;SDS011;3212;51.460;11.868;2024-01-10T00:56:58;27.67;;;11.32;;
6358;SDS011;3212;51.460;11.868;2024-01-10T01:00:21;33.63;;;11.70;;
6358;SDS011;3212;51.460;11.868;2024-01-10T01:03:44;32.30;;;11.67;;
6358;SDS011;3212;51.460;11.868;2024-01-10T01:07:07;29.43;;;12.20;;
6358;SDS011;3212;51.460;11.868;2024-01-10T01:10:31;29.20;;;11.60;;
6358;SDS011;3212;51.460;11.868;2024-01-10T01:13:53;27.17;;;10.90;;
6358;SDS011;3212;51.460;11.868;2024-01-10T01:17:15;29.27;;;12.00;;
6358;SDS011;3212;51.460;11.868;2024-01-10T01:20:38;30.90;;;11.40;;
6358;SDS011;3212;51.460;11.868;2024-01-10T01:24:01;28.33;;;11.50;;
6358;SDS011;3212;51.460;11.868;2024-01-10T01:27:24;38.53;;;11.63;;
6358;SDS011;3212;51.460;11.868;2024-01-10T01:30:46;35.13;;;12.50;;
6358;SDS011;3212;51.460;11.868;2024-01-10T01:34:09;28.10;;;11.10;;
6358;SDS011;3212;51.460;11.868;2024-01-10T01:37:32;27.10;;;11.30;;
6358;SDS011;3212;51.460;11.868;2024-01-10T01:40:54;27.03;;;11.73;;
6358;SDS011;3212;51.460;11.868;2024-01-10T01:44:17;33.30;;;12.70;;
6358;SDS011;3212;51.460;11.868;2024-01-10T01:47:41;25.70;;;11.67;;
6358;SDS011;3212;51.460;11.868;2024-01-10T01:51:05;31.43;;;11.13;;
6358;SDS011;3212;51.460;11.868;2024-01-10T01:54:27;27.47;;;11.70;;
6358;SDS011;3212;51.460;11.868;2024-01-10T01:57:49;31.27;;;10.97;;
6358;SDS011;3212;51.460;11.868;2024-01-10T02:01:12;24.80;;;10.65;;
6358;SDS011;3212;51.460;11.868;2024-01-10T02:04:34;32.67;;;11.87;;
6358;SDS011;3212;51.460;11.868;2024-01-10T02:07:57;21.77;;;10.50;;
6358;SDS011;3212;51.460;11.868;2024-01-10T02:11:19;27.65;;;11.65;;
6358;SDS011;3212;51.460;11.868;2024-01-10T02:14:42;25.87;;;10.43;;
6358;SDS011;3212;51.460;11.868;2024-01-10T02:18:05;26.65;;;11.57;;
6358;SDS011;3212;51.460;11.868;2024-01-10T02:21:27;26.70;;;11.73;;
6358;SDS011;3212;51.460;11.868;2024-01-10T02:24:53;31.77;;;11.50;;
6358;SDS011;3212;51.460;11.868;2024-01-10T02:28:14;27.70;;;11.30;;
6358;SDS011;3212;51.460;11.868;2024-01-10T02:31:36;31.70;;;11.27;;
6358;SDS011;3212;51.460;11.868;2024-01-10T02:34:59;29.23;;;11.93;;
6358;SDS011;3212;51.460;11.868;2024-01-10T02:38:22;26.90;;;12.63;;
6358;SDS011;3212;51.460;11.868;2024-01-10T02:41:44;29.08;;;11.88;;
6358;SDS011;3212;51.460;11.868;2024-01-10T02:45:07;31.87;;;12.40;;
6358;SDS011;3212;51.460;11.868;2024-01-10T02:48:31;27.50;;;12.00;;
6358;SDS011;3212;51.460;11.868;2024-01-10T02:51:53;28.27;;;13.10;;
6358;SDS011;3212;51.460;11.868;2024-01-10T02:55:16;30.70;;;12.30;;
6358;SDS011;3212;51.460;11.868;2024-01-10T02:58:39;29.13;;;11.13;;
6358;SDS011;3212;51.460;11.868;2024-01-10T03:02:01;27.97;;;11.80;;
6358;SDS011;3212;51.460;11.868;2024-01-10T03:05:24;29.87;;;11.70;;
6358;SDS011;3212;51.460;11.868;2024-01-10T03:08:47;26.57;;;11.60;;
6358;SDS011;3212;51.460;11.868;2024-01-10T03:12:10;26.80;;;10.52;;
6358;SDS011;3212;51.460;11.868;2024-01-10T03:15:32;31.47;;;11.50;;
6358;SDS011;3212;51.460;11.868;2024-01-10T03:18:54;32.80;;;11.43;;
6358;SDS011;3212;51.460;11.868;2024-01-10T03:22:16;35.83;;;12.88;;
6358;SDS011;3212;51.460;11.868;2024-01-10T03:25:40;29.80;;;11.27;;
6358;SDS011;3212;51.460;11.868;2024-01-10T03:29:03;31.40;;;11.57;;
6358;SDS011;3212;51.460;11.868;2024-01-10T03:32:26;29.30;;;11.60;;
6358;SDS011;3212;51.460;11.868;2024-01-10T03:35:48;28.10;;;11.20;;
6358;SDS011;3212;51.460;11.868;2024-01-10T03:39:11;31.60;;;11.83;;
6358;SDS011;3212;51.460;11.868;2024-01-10T03:42:33;32.33;;;11.20;;
6358;SDS011;3212;51.460;11.868;2024-01-10T03:45:57;29.40;;;12.90;;
6358;SDS011;3212;51.460;11.868;2024-01-10T03:49:19;31.57;;;12.60;;
6358;SDS011;3212;51.460;11.868;2024-01-10T03:52:43;31.37;;;11.97;;
6358;SDS011;3212;51.460;11.868;2024-01-10T03:56:06;25.37;;;11.13;;
6358;SDS011;3212;51.460;11.868;2024-01-10T03:59:29;28.90;;;11.93;;
6358;SDS011;3212;51.460;11.868;2024-01-10T04:02:52;27.23;;;12.00;;
6358;SDS011;3212;51.460;11.868;2024-01-10T04:06:15;30.55;;;11.23;;
6358;SDS011;3212;51.460;11.868;2024-01-10T04:09:37;31.37;;;13.63;;
6358;SDS011;3212;51.460;11.868;2024-01-10T04:13:00;30.00;;;12.07;;
6358;SDS011;3212;51.460;11.868;2024-01-10T04:16:22;30.80;;;11.13;;
6358;SDS011;3212;51.460;11.868;2024-01-10T04:19:45;32.73;;;11.87;;
6358;SDS011;3212;51.460;11.868;2024-01-10T04:23:09;26.90;;;10.97;;
6358;SDS011;3212;51.460;11.868;2024-01-10T04:26:32;31.15;;;11.95;;
6358;SDS011;3212;51.460;11.868;2024-01-10T04:29:54;26.00;;;11.60;;
6358;SDS011;3212;51.460;11.868;2024-01-10T04:33:18;29.73;;;12.33;;
6358;SDS011;3212;51.460;11.868;2024-01-10T04:36:40;28.50;;;12.53;;
6358;SDS011;3212;51.460;11.868;2024-01-10T04:40:04;34.40;;;12.10;;
6358;SDS011;3212;51.460;11.868;2024-01-10T04:43:27;25.97;;;12.27;;
6358;SDS011;3212;51.460;11.868;2024-01-10T04:46:50;29.33;;;12.87;;
6358;SDS011;3212;51.460;11.868;2024-01-10T04:50:12;36.20;;;12.33;;
6358;SDS011;3212;51.460;11.868;2024-01-10T04:53:35;27.90;;;11.57;;
6358;SDS011;3212;51.460;11.868;2024-01-10T04:56:57;27.80;;;11.13;;
6358;SDS011;3212;51.460;11.868;2024-01-10T05:00:20;32.57;;;12.43;;
6358;SDS011;3212;51.460;11.868;2024-01-10T05:03:43;32.07;;;12.33;;
6358;SDS011;3212;51.460;11.868;2024-01-10T05:07:06;35.93;;;11.97;;
6358;SDS011;3212;51.460;11.868;2024-01-10T05:10:29;27.43;;;13.33;;
6358;SDS011;3212;51.460;11.868;2024-01-10T05:13:52;32.72;;;12.43;;
6358;SDS011;3212;51.460;11.868;2024-01-10T05:17:14;29.80;;;11.30;;
6358;SDS011;3212;51.460;11.868;2024-01-10T05:20:37;31.03;;;11.90;;
6358;SDS011;3212;51.460;11.868;2024-01-10T05:24:00;32.30;;;12.53;;
6358;SDS011;3212;51.460;11.868;2024-01-10T05:27:22;27.40;;;11.00;;
6358;SDS011;3212;51.460;11.868;2024-01-10T05:30:45;31.23;;;12.63;;
6358;SDS011;3212;51.460;11.868;2024-01-10T05:34:08;32.60;;;11.33;;
6358;SDS011;3212;51.460;11.868;2024-01-10T05:37:31;31.53;;;13.53;;
6358;SDS011;3212;51.460;11.868;2024-01-10T05:40:54;36.80;;;11.97;;
6358;SDS011;3212;51.460;11.868;2024-01-10T05:44:16;27.13;;;10.95;;
6358;SDS011;3212;51.460;11.868;2024-01-10T05:47:39;27.33;;;12.30;;
6358;SDS011;3212;51.460;11.868;2024-01-10T05:51:02;24.60;;;10.70;;
6358;SDS011;3212;51.460;11.868;2024-01-10T05:54:25;31.27;;;11.45;;
6358;SDS011;3212;51.460;11.868;2024-01-10T05:57:47;31.77;;;12.33;;
6358;SDS011;3212;51.460;11.868;2024-01-10T06:01:09;43.40;;;14.53;;
6358;SDS011;3212;51.460;11.868;2024-01-10T06:04:32;28.90;;;12.87;;
6358;SDS011;3212;51.460;11.868;2024-01-10T06:07:54;33.37;;;12.47;;
6358;SDS011;3212;51.460;11.868;2024-01-10T06:11:17;36.27;;;12.47;;
6358;SDS011;3212;51.460;11.868;2024-01-10T06:14:39;29.20;;;12.87;;
6358;SDS011;3212;51.460;11.868;2024-01-10T06:18:02;27.57;;;11.43;;
6358;SDS011;3212;51.460;11.868;2024-01-10T06:21:26;33.67;;;12.90;;
6358;SDS011;3212;51.460;11.868;2024-01-10T06:24:48;30.60;;;11.93;;
6358;SDS011;3212;51.460;11.868;2024-01-10T06:28:11;27.93;;;11.63;;
6358;SDS011;3212;51.460;11.868;2024-01-10T06:31:33;37.67;;;12.13;;
6358;SDS011;3212;51.460;11.868;2024-01-10T06:34:56;34.57;;;13.03;;
6358;SDS011;3212;51.460;11.868;2024-01-10T06:38:19;31.43;;;12.37;;
6358;SDS011;3212;51.460;11.868;2024-01-10T06:41:42;27.33;;;11.73;;
6358;SDS011;3212;51.460;11.868;2024-01-10T06:45:06;34.17;;;13.07;;
6358;SDS011;3212;51.460;11.868;2024-01-10T06:48:29;32.57;;;13.10;;
6358;SDS011;3212;51.460;11.868;2024-01-10T06:51:52;38.03;;;13.40;;
6358;SDS011;3212;51.460;11.868;2024-01-10T06:55:14;28.87;;;13.47;;
6358;SDS011;3212;51.460;11.868;2024-01-10T06:58:38;30.80;;;13.30;;
6358;SDS011;3212;51.460;11.868;2024-01-10T07:01:59;28.80;;;12.30;;
6358;SDS011;3212;51.460;11.868;2024-01-10T07:05:22;28.13;;;12.43;;
6358;SDS011;3212;51.460;11.868;2024-01-10T07:08:48;33.40;;;13.20;;
6358;SDS011;3212;51.460;11.868;2024-01-10T07:12:07;28.27;;;12.03;;
6358;SDS011;3212;51.460;11.868;2024-01-10T07:15:30;39.37;;;13.93;;
6358;SDS011;3212;51.460;11.868;2024-01-10T07:18:53;34.20;;;14.20;;
6358;SDS011;3212;51.460;11.868;2024-01-10T07:22:17;35.03;;;13.43;;
6358;SDS011;3212;51.460;11.868;2024-01-10T07:25:40;43.40;;;15.80;;
6358;SDS011;3212;51.460;11.868;2024-01-10T07:29:02;42.83;;;15.37;;
6358;SDS011;3212;51.460;11.868;2024-01-10T07:32:25;33.83;;;16.77;;
6358;SDS011;3212;51.460;11.868;2024-01-10T07:35:49;39.23;;;15.20;;
6358;SDS011;3212;51.460;11.868;2024-01-10T07:39:12;41.97;;;17.20;;
6358;SDS011;3212;51.460;11.868;2024-01-10T07:42:38;55.93;;;19.77;;
6358;SDS011;3212;51.460;11.868;2024-01-10T07:46:01;45.77;;;16.93;;
6358;SDS011;3212;51.460;11.868;2024-01-10T07:49:24;43.78;;;15.75;;
6358;SDS011;3212;51.460;11.868;2024-01-10T07:52:47;40.33;;;13.23;;
6358;SDS011;3212;51.460;11.868;2024-01-10T07:56:10;32.03;;;13.80;;
6358;SDS011;3212;51.460;11.868;2024-01-10T07:59:33;42.63;;;15.40;;
6358;SDS011;3212;51.460;11.868;2024-01-10T08:02:55;39.93;;;17.97;;
6358;SDS011;3212;51.460;11.868;2024-01-10T08:06:18;42.60;;;16.93;;
6358;SDS011;3212;51.460;11.868;2024-01-10T08:09:41;44.23;;;15.23;;
6358;SDS011;3212;51.460;11.868;2024-01-10T08:13:04;32.80;;;14.53;;
6358;SDS011;3212;51.460;11.868;2024-01-10T08:16:26;32.10;;;14.43;;
6358;SDS011;3212;51.460;11.868;2024-01-10T08:19:49;35.23;;;14.37;;
6358;SDS011;3212;51.460;11.868;2024-01-10T08:23:12;38.53;;;16.90;;
6358;SDS011;3212;51.460;11.868;2024-01-10T08:26:34;40.50;;;15.80;;
6358;SDS011;3212;51.460;11.868;2024-01-10T08:29:57;45.27;;;17.20;;
6358;SDS011;3212;51.460;11.868;2024-01-10T08:33:21;38.90;;;16.03;;
6358;SDS011;3212;51.460;11.868;2024-01-10T08:36:43;40.63;;;16.50;;
6358;SDS011;3212;51.460;11.868;2024-01-10T08:40:06;43.37;;;16.17;;
6358;SDS011;3212;51.460;11.868;2024-01-10T08:43:29;38.47;;;15.83;;
6358;SDS011;3212;51.460;11.868;2024-01-10T08:46:51;48.53;;;15.80;;
6358;SDS011;3212;51.460;11.868;2024-01-10T08:50:14;45.37;;;16.70;;
6358;SDS011;3212;51.460;11.868;2024-01-10T08:53:37;42.70;;;17.03;;
6358;SDS011;3212;51.460;11.868;2024-01-10T08:56:59;35.33;;;15.90;;
6358;SDS011;3212;51.460;11.868;2024-01-10T09:00:22;43.17;;;16.97;;
6358;SDS011;3212;51.460;11.868;2024-01-10T09:03:46;41.03;;;17.80;;
6358;SDS011;3212;51.460;11.868;2024-01-10T09:07:08;48.50;;;16.90;;
6358;SDS011;3212;51.460;11.868;2024-01-10T09:10:30;43.40;;;18.03;;
6358;SDS011;3212;51.460;11.868;2024-01-10T09:13:54;47.97;;;17.60;;
6358;SDS011;3212;51.460;11.868;2024-01-10T09:17:18;45.00;;;18.43;;
6358;SDS011;3212;51.460;11.868;2024-01-10T09:20:40;43.67;;;17.90;;
6358;SDS011;3212;51.460;11.868;2024-01-10T09:24:03;54.40;;;19.03;;
6358;SDS011;3212;51.460;11.868;2024-01-10T09:27:26;55.50;;;19.57;;
6358;SDS011;3212;51.460;11.868;2024-01-10T09:30:48;44.30;;;18.27;;
6358;SDS011;3212;51.460;11.868;2024-01-10T09:34:10;46.63;;;18.40;;
6358;SDS011;3212;51.460;11.868;2024-01-10T09:37:34;41.87;;;17.50;;
6358;SDS011;3212;51.460;11.868;2024-01-10T09:40:57;44.87;;;17.27;;
6358;SDS011;3212;51.460;11.868;2024-01-10T09:44:18;44.47;;;18.03;;
6358;SDS011;3212;51.460;11.868;2024-01-10T09:47:42;44.07;;;17.67;;
6358;SDS011;3212;51.460;11.868;2024-01-10T09:51:05;45.57;;;19.10;;
6358;SDS011;3212;51.460;11.868;2024-01-10T09:54:29;39.77;;;17.43;;
6358;SDS011;3212;51.460;11.868;2024-01-10T09:57:53;41.10;;;18.63;;
6358;SDS011;3212;51.460;11.868;2024-01-10T10:01:16;48.60;;;18.60;;
6358;SDS011;3212;51.460;11.868;2024-01-10T10:04:39;49.33;;;19.80;;
6358;SDS011;3212;51.460;11.868;2024-01-10T10:08:02;51.63;;;19.73;;
6358;SDS011;3212;51.460;11.868;2024-01-10T10:11:25;43.80;;;18.20;;
6358;SDS011;3212;51.460;11.868;2024-01-10T10:14:48;41.93;;;18.10;;
6358;SDS011;3212;51.460;11.868;2024-01-10T10:18:13;56.63;;;19.50;;
6358;SDS011;3212;51.460;11.868;2024-01-10T10:21:32;43.63;;;19.10;;
6358;SDS011;3212;51.460;11.868;2024-01-10T10:24:55;58.03;;;21.67;;
6358;SDS011;3212;51.460;11.868;2024-01-10T10:28:17;52.03;;;20.13;;
6358;SDS011;3212;51.460;11.868;2024-01-10T10:31:40;46.00;;;19.20;;
6358;SDS011;3212;51.460;11.868;2024-01-10T10:35:03;46.30;;;19.83;;
6358;SDS011;3212;51.460;11.868;2024-01-10T10:38:26;46.97;;;20.03;;
6358;SDS011;3212;51.460;11.868;2024-01-10T10:41:48;43.00;;;20.00;;
6358;SDS011;3212;51.460;11.868;2024-01-10T10:45:12;45.67;;;20.40;;
6358;SDS011;3212;51.460;11.868;2024-01-10T10:48:34;45.87;;;20.60;;
6358;SDS011;3212;51.460;11.868;2024-01-10T10:51:57;45.00;;;19.20;;
6358;SDS011;3212;51.460;11.868;2024-01-10T10:55:20;49.38;;;19.80;;
6358;SDS011;3212;51.460;11.868;2024-01-10T10:58:43;49.83;;;20.97;;
6358;SDS011;3212;51.460;11.868;2024-01-10T11:02:05;43.90;;;20.30;;
6358;SDS011;3212;51.460;11.868;2024-01-10T11:05:28;45.77;;;21.50;;
6358;SDS011;3212;51.460;11.868;2024-01-10T11:08:53;54.00;;;20.73;;
6358;SDS011;3212;51.460;11.868;2024-01-10T11:12:25;55.30;;;22.00;;
6358;SDS011;3212;51.460;11.868;2024-01-10T11:15:54;53.17;;;22.13;;
6358;SDS011;3212;51.460;11.868;2024-01-10T11:19:38;48.50;;;21.83;;
6358;SDS011;3212;51.460;11.868;2024-01-10T11:23:19;51.87;;;22.20;;
6358;SDS011;3212;51.460;11.868;2024-01-10T11:26:39;51.23;;;21.37;;
6358;SDS011;3212;51.460;11.868;2024-01-10T11:30:02;52.97;;;21.93;;
6358;SDS011;3212;51.460;11.868;2024-01-10T11:33:30;50.70;;;22.00;;
6358;SDS011;3212;51.460;11.868;2024-01-10T11:37:08;48.80;;;21.50;;
6358;SDS011;3212;51.460;11.868;2024-01-10T11:40:45;49.03;;;20.27;;
6358;SDS011;3212;51.460;11.868;2024-01-10T11:47:42;50.57;;;21.17;;
6358;SDS011;3212;51.460;11.868;2024-01-10T11:51:04;51.43;;;21.17;;
6358;SDS011;3212;51.460;11.868;2024-01-10T11:54:40;47.47;;;20.23;;
6358;SDS011;3212;51.460;11.868;2024-01-10T11:58:07;48.67;;;21.47;;
6358;SDS011;3212;51.460;11.868;2024-01-10T12:01:29;47.37;;;19.03;;
6358;SDS011;3212;51.460;11.868;2024-01-10T12:04:53;44.33;;;20.47;;
6358;SDS011;3212;51.460;11.868;2024-01-10T12:08:16;39.53;;;18.47;;
6358;SDS011;3212;51.460;11.868;2024-01-10T12:11:39;46.73;;;19.57;;
6358;SDS011;3212;51.460;11.868;2024-01-10T12:15:01;49.30;;;19.33;;
6358;SDS011;3212;51.460;11.868;2024-01-10T12:18:24;39.47;;;18.10;;
6358;SDS011;3212;51.460;11.868;2024-01-10T12:21:48;46.00;;;19.57;;
6358;SDS011;3212;51.460;11.868;2024-01-10T12:25:10;46.57;;;20.97;;
6358;SDS011;3212;51.460;11.868;2024-01-10T12:28:32;47.37;;;20.10;;
6358;SDS011;3212;51.460;11.868;2024-01-10T12:31:54;45.60;;;18.93;;
6358;SDS011;3212;51.460;11.868;2024-01-10T12:35:17;48.60;;;20.40;;
6358;SDS011;3212;51.460;11.868;2024-01-10T12:38:39;50.50;;;19.57;;
6358;SDS011;3212;51.460;11.868;2024-01-10T12:42:02;47.80;;;19.00;;
6358;SDS011;3212;51.460;11.868;2024-01-10T12:45:24;46.67;;;19.57;;
6358;SDS011;3212;51.460;11.868;2024-01-10T12:48:57;49.87;;;20.27;;
6358;SDS011;3212;51.460;11.868;2024-01-10T12:52:11;43.70;;;18.63;;
6358;SDS011;3212;51.460;11.868;2024-01-10T12:55:33;46.90;;;18.97;;
6358;SDS011;3212;51.460;11.868;2024-01-10T12:58:56;52.37;;;19.77;;
6358;SDS011;3212;51.460;11.868;2024-01-10T13:02:18;42.00;;;18.80;;
6358;SDS011;3212;51.460;11.868;2024-01-10T13:05:40;43.75;;;18.70;;
6358;SDS011;3212;51.460;11.868;2024-01-10T13:09:03;48.00;;;20.87;;
6358;SDS011;3212;51.460;11.868;2024-01-10T13:12:26;49.97;;;20.10;;
6358;SDS011;3212;51.460;11.868;2024-01-10T13:15:48;39.37;;;18.30;;
6358;SDS011;3212;51.460;11.868;2024-01-10T13:19:11;46.17;;;19.20;;
6358;SDS011;3212;51.460;11.868;2024-01-10T13:22:33;48.83;;;20.53;;
6358;SDS011;3212;51.460;11.868;2024-01-10T13:25:56;49.83;;;20.07;;
6358;SDS011;3212;51.460;11.868;2024-01-10T13:29:20;48.53;;;21.30;;
6358;SDS011;3212;51.460;11.868;2024-01-10T13:32:43;50.50;;;19.97;;
6358;SDS011;3212;51.460;11.868;2024-01-10T13:36:06;44.97;;;20.10;;
6358;SDS011;3212;51.460;11.868;2024-01-10T13:39:29;46.10;;;20.80;;
6358;SDS011;3212;51.460;11.868;2024-01-10T13:42:51;52.63;;;20.63;;
6358;SDS011;3212;51.460;11.868;2024-01-10T13:46:14;46.30;;;19.50;;
6358;SDS011;3212;51.460;11.868;2024-01-10T13:49:37;50.20;;;20.40;;
6358;SDS011;3212;51.460;11.868;2024-01-10T13:52:59;51.60;;;21.70;;
6358;SDS011;3212;51.460;11.868;2024-01-10T13:56:22;46.67;;;20.40;;
6358;SDS011;3212;51.460;11.868;2024-01-10T13:59:45;41.33;;;18.67;;
6358;SDS011;3212;51.460;11.868;2024-01-10T14:03:08;50.00;;;19.63;;
6358;SDS011;3212;51.460;11.868;2024-01-10T14:06:31;43.40;;;18.87;;
6358;SDS011;3212;51.460;11.868;2024-01-10T14:09:54;44.83;;;18.70;;
6358;SDS011;3212;51.460;11.868;2024-01-10T14:13:16;48.83;;;19.17;;
6358;SDS011;3212;51.460;11.868;2024-01-10T14:16:39;45.33;;;18.43;;
6358;SDS011;3212;51.460;11.868;2024-01-10T14:20:02;46.15;;;18.83;;
6358;SDS011;3212;51.460;11.868;2024-01-10T14:23:25;62.87;;;20.63;;
6358;SDS011;3212;51.460;11.868;2024-01-10T14:26:47;40.80;;;19.30;;
6358;SDS011;3212;51.460;11.868;2024-01-10T14:30:10;44.00;;;19.07;;
6358;SDS011;3212;51.460;11.868;2024-01-10T14:33:33;45.87;;;19.83;;
6358;SDS011;3212;51.460;11.868;2024-01-10T14:36:55;53.30;;;20.77;;
6358;SDS011;3212;51.460;11.868;2024-01-10T14:40:18;47.30;;;19.10;;
6358;SDS011;3212;51.460;11.868;2024-01-10T14:43:42;43.90;;;18.80;;
6358;SDS011;3212;51.460;11.868;2024-01-10T14:47:04;44.93;;;18.50;;
6358;SDS011;3212;51.460;11.868;2024-01-10T14:50:27;45.33;;;19.40;;
6358;SDS011;3212;51.460;11.868;2024-01-10T14:53:51;45.90;;;19.83;;
6358;SDS011;3212;51.460;11.868;2024-01-10T14:57:14;57.73;;;20.27;;
6358;SDS011;3212;51.460;11.868;2024-01-10T15:00:36;56.10;;;21.60;;
6358;SDS011;3212;51.460;11.868;2024-01-10T15:03:59;50.70;;;20.83;;
6358;SDS011;3212;51.460;11.868;2024-01-10T15:07:22;55.50;;;22.03;;
6358;SDS011;3212;51.460;11.868;2024-01-10T15:10:44;46.20;;;20.57;;
6358;SDS011;3212;51.460;11.868;2024-01-10T15:14:08;55.37;;;21.40;;
6358;SDS011;3212;51.460;11.868;2024-01-10T15:17:31;59.23;;;22.70;;
6358;SDS011;3212;51.460;11.868;2024-01-10T15:20:53;48.97;;;22.73;;
6358;SDS011;3212;51.460;11.868;2024-01-10T15:24:15;49.53;;;21.10;;
6358;SDS011;3212;51.460;11.868;2024-01-10T15:27:38;52.83;;;22.67;;
6358;SDS011;3212;51.460;11.868;2024-01-10T15:31:00;55.37;;;23.27;;
6358;SDS011;3212;51.460;11.868;2024-01-10T15:34:23;47.67;;;19.60;;
6358;SDS011;3212;51.460;11.868;2024-01-10T15:37:47;44.03;;;19.37;;
6358;SDS011;3212;51.460;11.868;2024-01-10T15:41:09;57.60;;;20.77;;
6358;SDS011;3212;51.460;11.868;2024-01-10T15:44:32;47.93;;;18.80;;
6358;SDS011;3212;51.460;11.868;2024-01-10T15:47:55;42.50;;;18.37;;
6358;SDS011;3212;51.460;11.868;2024-01-10T15:51:17;52.30;;;20.00;;
6358;SDS011;3212;51.460;11.868;2024-01-10T15:54:40;51.33;;;20.40;;
6358;SDS011;3212;51.460;11.868;2024-01-10T15:58:04;50.20;;;20.33;;
6358;SDS011;3212;51.460;11.868;2024-01-10T16:01:26;58.43;;;22.90;;
6358;SDS011;3212;51.460;11.868;2024-01-10T16:04:49;49.53;;;19.27;;
6358;SDS011;3212;51.460;11.868;2024-01-10T16:08:12;47.67;;;19.17;;
6358;SDS011;3212;51.460;11.868;2024-01-10T16:11:39;47.90;;;21.40;;
6358;SDS011;3212;51.460;11.868;2024-01-10T16:15:01;50.20;;;19.80;;
6358;SDS011;3212;51.460;11.868;2024-01-10T16:18:24;49.33;;;20.43;;
6358;SDS011;3212;51.460;11.868;2024-01-10T16:21:48;49.80;;;19.60;;
6358;SDS011;3212;51.460;11.868;2024-01-10T16:25:10;54.77;;;21.70;;
6358;SDS011;3212;51.460;11.868;2024-01-10T16:28:32;49.40;;;19.90;;
6358;SDS011;3212;51.460;11.868;2024-01-10T16:31:55;44.53;;;18.92;;
6358;SDS011;3212;51.460;11.868;2024-01-10T16:35:17;50.43;;;20.10;;
6358;SDS011;3212;51.460;11.868;2024-01-10T16:38:40;59.40;;;20.43;;
6358;SDS011;3212;51.460;11.868;2024-01-10T16:42:03;56.50;;;20.50;;
6358;SDS011;3212;51.460;11.868;2024-01-10T16:45:25;43.57;;;17.87;;
6358;SDS011;3212;51.460;11.868;2024-01-10T16:48:49;55.73;;;20.97;;
6358;SDS011;3212;51.460;11.868;2024-01-10T16:52:12;53.00;;;19.97;;
6358;SDS011;3212;51.460;11.868;2024-01-10T16:55:35;58.63;;;21.30;;
6358;SDS011;3212;51.460;11.868;2024-01-10T16:58:57;48.83;;;21.20;;
6358;SDS011;3212;51.460;11.868;2024-01-10T17:02:21;54.37;;;19.43;;
6358;SDS011;3212;51.460;11.868;2024-01-10T17:05:43;51.40;;;20.07;;
6358;SDS011;3212;51.460;11.868;2024-01-10T17:09:06;45.80;;;19.37;;
6358;SDS011;3212;51.460;11.868;2024-01-10T17:12:30;52.27;;;19.67;;
6358;SDS011;3212;51.460;11.868;2024-01-10T17:15:52;56.57;;;20.17;;
6358;SDS011;3212;51.460;11.868;2024-01-10T17:19:15;46.87;;;20.00;;
6358;SDS011;3212;51.460;11.868;2024-01-10T17:22:37;60.50;;;21.23;;
6358;SDS011;3212;51.460;11.868;2024-01-10T17:26:00;79.87;;;20.67;;
6358;SDS011;3212;51.460;11.868;2024-01-10T17:29:22;48.40;;;20.50;;
6358;SDS011;3212;51.460;11.868;2024-01-10T17:32:45;44.73;;;19.60;;
6358;SDS011;3212;51.460;11.868;2024-01-10T17:36:07;54.70;;;20.83;;
6358;SDS011;3212;51.460;11.868;2024-01-10T17:39:29;53.83;;;20.83;;
6358;SDS011;3212;51.460;11.868;2024-01-10T17:42:52;53.60;;;20.57;;
6358;SDS011;3212;51.460;11.868;2024-01-10T17:46:14;46.23;;;19.53;;
6358;SDS011;3212;51.460;11.868;2024-01-10T17:49:37;52.43;;;20.53;;
6358;SDS011;3212;51.460;11.868;2024-01-10T17:52:59;53.90;;;21.00;;
6358;SDS011;3212;51.460;11.868;2024-01-10T17:56:22;51.53;;;20.40;;
6358;SDS011;3212;51.460;11.868;2024-01-10T17:59:45;56.40;;;23.77;;
6358;SDS011;3212;51.460;11.868;2024-01-10T18:03:07;53.70;;;22.00;;
6358;SDS011;3212;51.460;11.868;2024-01-10T18:06:30;51.70;;;20.37;;
6358;SDS011;3212;51.460;11.868;2024-01-10T18:09:53;55.63;;;22.10;;
6358;SDS011;3212;51.460;11.868;2024-01-10T18:13:17;53.93;;;22.03;;
6358;SDS011;3212;51.460;11.868;2024-01-10T18:16:39;52.43;;;20.33;;
6358;SDS011;3212;51.460;11.868;2024-01-10T18:20:01;47.20;;;20.13;;
6358;SDS011;3212;51.460;11.868;2024-01-10T18:23:25;49.53;;;19.30;;
6358;SDS011;3212;51.460;11.868;2024-01-10T18:26:48;47.73;;;19.93;;
6358;SDS011;3212;51.460;11.868;2024-01-10T18:30:11;52.20;;;20.30;;
6358;SDS011;3212;51.460;11.868;2024-01-10T18:33:34;51.73;;;20.97;;
6358;SDS011;3212;51.460;11.868;2024-01-10T18:36:56;54.58;;;20.23;;
6358;SDS011;3212;51.460;11.868;2024-01-10T18:40:19;52.00;;;20.10;;
6358;SDS011;3212;51.460;11.868;2024-01-10T18:43:42;47.60;;;21.53;;
6358;SDS011;3212;51.460;11.868;2024-01-10T18:47:05;49.87;;;20.57;;
6358;SDS011;3212;51.460;11.868;2024-01-10T18:50:29;54.30;;;21.73;;
6358;SDS011;3212;51.460;11.868;2024-01-10T18:53:51;54.30;;;20.43;;
6358;SDS011;3212;51.460;11.868;2024-01-10T18:57:13;50.23;;;21.00;;
6358;SDS011;3212;51.460;11.868;2024-01-10T19:00:36;55.23;;;20.47;;
6358;SDS011;3212;51.460;11.868;2024-01-10T19:03:59;49.57;;;20.43;;
6358;SDS011;3212;51.460;11.868;2024-01-10T19:07:21;49.80;;;20.27;;
6358;SDS011;3212;51.460;11.868;2024-01-10T19:10:44;43.17;;;20.80;;
6358;SDS011;3212;51.460;11.868;2024-01-10T19:14:07;48.70;;;18.00;;
6358;SDS011;3212;51.460;11.868;2024-01-10T19:17:30;45.07;;;19.33;;
6358;SDS011;3212;51.460;11.868;2024-01-10T19:20:52;41.90;;;18.47;;
6358;SDS011;3212;51.460;11.868;2024-01-10T19:24:14;48.23;;;19.83;;
6358;SDS011;3212;51.460;11.868;2024-01-10T19:27:37;53.00;;;20.33;;
6358;SDS011;3212;51.460;11.868;2024-01-10T19:31:00;53.33;;;19.20;;
6358;SDS011;3212;51.460;11.868;2024-01-10T19:34:23;51.17;;;20.33;;
6358;SDS011;3212;51.460;11.868;2024-01-10T19:37:46;47.00;;;18.63;;
6358;SDS011;3212;51.460;11.868;2024-01-10T19:41:18;52.47;;;19.67;;
6358;SDS011;3212;51.460;11.868;2024-01-10T19:44:31;47.93;;;19.77;;
6358;SDS011;3212;51.460;11.868;2024-01-10T19:47:54;49.23;;;19.00;;
6358;SDS011;3212;51.460;11.868;2024-01-10T19:51:17;58.13;;;20.03;;
6358;SDS011;3212;51.460;11.868;2024-01-10T19:54:40;48.03;;;19.47;;
6358;SDS011;3212;51.460;11.868;2024-01-10T19:58:02;45.40;;;17.90;;
6358;SDS011;3212;51.460;11.868;2024-01-10T20:01:26;43.07;;;17.00;;
6358;SDS011;3212;51.460;11.868;2024-01-10T20:04:50;44.70;;;17.67;;
6358;SDS011;3212;51.460;11.868;2024-01-10T20:08:12;46.43;;;18.17;;